createdAt,value
2024-04-14T00:00:25.059Z,8.99
2024-04-14T00:03:26.468Z,9.01
2024-04-14T00:06:28.281Z,9.08
2024-04-14T00:09:29.735Z,9.12
2024-04-14T00:12:31.111Z,9.18
2024-04-14T00:15:32.513Z,9.24
2024-04-14T00:18:34.104Z,9.29
2024-04-14T00:21:36.431Z,9.34
2024-04-14T00:24:37.812Z,9.38
2024-04-14T00:27:39.231Z,9.40
2024-04-14T00:30:42.468Z,9.43
2024-04-14T00:33:43.963Z,9.43
2024-04-14T00:36:45.335Z,9.48
2024-04-14T00:39:46.752Z,9.49
2024-04-14T00:42:48.127Z,9.46
2024-04-14T00:45:50.888Z,9.42
2024-04-14T00:48:52.463Z,9.43
2024-04-14T00:51:55.323Z,9.41
2024-04-14T00:54:57.223Z,9.34
2024-04-14T00:57:58.938Z,9.26
2024-04-14T01:01:00.518Z,9.20
2024-04-14T01:04:02.124Z,9.15
2024-04-14T01:07:03.652Z,9.09
2024-04-14T01:10:06.114Z,9.02
2024-04-14T01:13:07.539Z,9.00
2024-04-14T01:16:08.817Z,8.99
2024-04-14T01:19:10.264Z,8.95
2024-04-14T01:22:11.609Z,8.89
2024-04-14T01:25:13.111Z,8.81
2024-04-14T01:28:14.518Z,8.70
2024-04-14T01:31:15.906Z,8.64
2024-04-14T01:34:17.268Z,8.64
2024-04-14T01:37:18.579Z,8.64
2024-04-14T01:40:19.937Z,8.59
2024-04-14T01:43:21.218Z,8.56
2024-04-14T01:46:22.569Z,8.51
2024-04-14T01:49:23.949Z,8.45
2024-04-14T01:52:25.868Z,8.45
2024-04-14T01:55:27.422Z,8.43
2024-04-14T01:58:28.878Z,8.39
2024-04-14T02:01:30.304Z,8.37
2024-04-14T02:04:33.642Z,8.38
2024-04-14T02:07:35.245Z,8.35
2024-04-14T02:10:40.427Z,8.30
2024-04-14T02:13:41.985Z,8.31
2024-04-14T02:16:43.346Z,8.29
2024-04-14T02:19:44.675Z,8.21
2024-04-14T02:22:45.976Z,8.20
2024-04-14T02:25:57.626Z,8.23
2024-04-14T02:28:59.067Z,8.18
2024-04-14T02:32:00.395Z,8.13
2024-04-14T02:35:01.977Z,8.08
2024-04-14T02:38:03.441Z,8.06
2024-04-14T02:41:05.211Z,8.07
2024-04-14T02:44:06.456Z,8.03
2024-04-14T02:47:07.833Z,7.96
2024-04-14T02:50:09.237Z,7.94
2024-04-14T02:53:10.598Z,7.91
2024-04-14T02:56:12.001Z,7.87
2024-04-14T02:59:13.443Z,7.83
2024-04-14T03:02:14.855Z,7.81
2024-04-14T03:05:16.183Z,7.80
2024-04-14T03:08:17.579Z,7.79
2024-04-14T03:11:18.999Z,7.77
2024-04-14T03:14:20.447Z,7.76
2024-04-14T03:17:21.845Z,7.72
2024-04-14T03:20:23.208Z,7.69
2024-04-14T03:23:25.963Z,7.69
2024-04-14T03:26:27.377Z,7.64
2024-04-14T03:29:28.666Z,7.60
2024-04-14T03:32:30.058Z,7.57
2024-04-14T03:35:31.386Z,7.53
2024-04-14T03:38:33.639Z,7.50
2024-04-14T03:41:35.108Z,7.47
2024-04-14T03:44:36.437Z,7.42
2024-04-14T03:47:37.862Z,7.38
2024-04-14T03:50:39.238Z,7.35
2024-04-14T03:53:40.577Z,7.33
2024-04-14T03:56:42.090Z,7.31
2024-04-14T03:59:44.040Z,7.27
2024-04-14T04:02:45.691Z,7.26
2024-04-14T04:05:54.706Z,7.25
2024-04-14T04:08:56.141Z,7.28
2024-04-14T04:11:57.464Z,7.32
2024-04-14T04:14:59.072Z,7.34
2024-04-14T04:18:00.711Z,7.40
2024-04-14T04:21:12.344Z,7.43
2024-04-14T04:24:14.095Z,7.45
2024-04-14T04:27:15.675Z,7.47
2024-04-14T04:30:17.205Z,7.55
2024-04-14T04:33:22.213Z,7.62
2024-04-14T04:36:24.006Z,7.70
2024-04-14T04:39:25.708Z,7.79
2024-04-14T04:42:30.389Z,7.89
2024-04-14T04:45:34.626Z,7.97
2024-04-14T04:48:36.455Z,8.07
2024-04-14T04:51:38.147Z,8.21
2024-04-14T04:54:39.710Z,8.38
2024-04-14T04:57:41.280Z,8.51
2024-04-14T05:00:53.885Z,8.69
2024-04-14T05:03:55.378Z,8.88
2024-04-14T05:06:56.838Z,9.07
2024-04-14T05:10:00.392Z,9.26
2024-04-14T05:13:02.150Z,9.43
2024-04-14T05:16:03.793Z,9.60
2024-04-14T05:19:05.540Z,9.72
2024-04-14T05:22:07.018Z,9.84
2024-04-14T05:25:08.499Z,10.02
2024-04-14T05:28:10.057Z,10.19
2024-04-14T05:31:14.171Z,10.33
2024-04-14T05:34:15.621Z,10.51
2024-04-14T05:37:16.998Z,10.72
2024-04-14T05:40:18.272Z,10.98
2024-04-14T05:43:19.759Z,11.32
2024-04-14T05:46:21.621Z,11.72
2024-04-14T05:49:23.132Z,12.12
2024-04-14T05:52:24.604Z,12.56
2024-04-14T05:55:26.318Z,13.10
2024-04-14T05:58:27.846Z,13.53
2024-04-14T06:01:29.397Z,13.90
2024-04-14T06:04:30.887Z,14.18
2024-04-14T06:07:35.259Z,14.51
2024-04-14T06:10:37.922Z,14.88
2024-04-14T06:13:39.409Z,15.22
2024-04-14T06:16:40.876Z,15.55
2024-04-14T06:19:42.508Z,15.88
2024-04-14T06:22:43.899Z,16.12
2024-04-14T06:25:45.500Z,16.19
2024-04-14T06:28:46.928Z,16.38
2024-04-14T06:31:48.334Z,16.63
2024-04-14T06:34:49.700Z,16.83
2024-04-14T06:37:51.108Z,16.99
2024-04-14T06:40:52.477Z,17.12
2024-04-14T06:43:53.948Z,17.34
2024-04-14T06:46:55.309Z,17.53
2024-04-14T06:49:56.858Z,17.74
2024-04-14T06:52:58.357Z,17.97
2024-04-14T06:55:59.790Z,18.15
2024-04-14T06:59:01.210Z,18.21
2024-04-14T07:02:02.762Z,18.13
2024-04-14T07:05:04.831Z,18.13
2024-04-14T07:08:06.573Z,18.19
2024-04-14T07:11:09.885Z,18.22
2024-04-14T07:14:11.242Z,18.41
2024-04-14T07:17:13.926Z,18.51
2024-04-14T07:20:15.351Z,18.72
2024-04-14T07:23:16.937Z,18.84
2024-04-14T07:26:18.354Z,19.05
2024-04-14T07:29:19.891Z,19.15
2024-04-14T07:32:21.403Z,19.26
2024-04-14T07:35:22.825Z,19.48
2024-04-14T07:38:24.295Z,19.70
2024-04-14T07:41:25.661Z,19.87
2024-04-14T07:44:27.207Z,19.94
2024-04-14T07:47:28.713Z,20.01
2024-04-14T07:50:31.450Z,20.06
2024-04-14T07:53:34.217Z,20.08
2024-04-14T07:56:40.503Z,20.06
2024-04-14T07:59:44.615Z,20.09
2024-04-14T08:02:46.713Z,20.24
2024-04-14T08:05:48.096Z,20.53
2024-04-14T08:08:49.544Z,20.64
2024-04-14T08:11:51.062Z,21.00
2024-04-14T08:14:52.472Z,21.28
2024-04-14T08:17:54.680Z,21.61
2024-04-14T08:20:57.827Z,21.67
2024-04-14T08:23:59.598Z,21.64
2024-04-14T08:27:01.033Z,21.64
2024-04-14T08:30:02.443Z,21.66
2024-04-14T08:33:04.143Z,21.59
2024-04-14T08:36:05.977Z,21.76
2024-04-14T08:39:07.600Z,21.99
2024-04-14T08:42:11.001Z,22.06
2024-04-14T08:45:14.712Z,22.11
2024-04-14T08:48:18.277Z,22.23
2024-04-14T08:51:21.618Z,22.23
2024-04-14T08:54:23.479Z,22.18
2024-04-14T08:57:26.225Z,22.38
2024-04-14T09:00:29.474Z,22.76
2024-04-14T09:03:31.803Z,23.04
2024-04-14T09:06:33.977Z,23.10
2024-04-14T09:09:36.380Z,23.22
2024-04-14T09:12:37.937Z,23.42
2024-04-14T09:15:40.662Z,23.68
2024-04-14T09:18:44.350Z,24.05
2024-04-14T09:21:46.712Z,24.40
2024-04-14T09:24:48.307Z,24.67
2024-04-14T09:27:49.923Z,24.90
2024-04-14T09:30:54.829Z,24.96
2024-04-14T09:33:56.926Z,25.11
2024-04-14T09:37:00.803Z,25.43
2024-04-14T09:40:06.143Z,25.77
2024-04-14T09:43:07.771Z,25.79
2024-04-14T09:46:09.726Z,25.73
2024-04-14T09:49:11.250Z,25.73
2024-04-14T09:52:13.629Z,25.98
2024-04-14T09:55:15.145Z,26.16
2024-04-14T09:58:16.649Z,26.19
2024-04-14T10:01:22.855Z,26.44
2024-04-14T10:04:24.749Z,26.52
2024-04-14T10:07:27.433Z,26.61
2024-04-14T10:10:29.034Z,26.76
2024-04-14T10:13:30.662Z,26.88
2024-04-14T10:16:32.107Z,26.85
2024-04-14T10:19:39.569Z,26.76
2024-04-14T10:22:44.132Z,26.95
2024-04-14T10:25:49.062Z,26.94
2024-04-14T10:28:51.665Z,26.69
2024-04-14T10:31:53.059Z,26.81
2024-04-14T10:34:54.715Z,26.94
2024-04-14T10:37:56.737Z,26.94
2024-04-14T10:40:58.397Z,27.00
2024-04-14T10:43:59.844Z,26.79
2024-04-14T10:47:01.374Z,26.88
2024-04-14T10:50:03.159Z,27.01
2024-04-14T10:53:05.262Z,27.14
2024-04-14T10:56:09.192Z,27.04
2024-04-14T10:59:10.580Z,27.25
2024-04-14T11:02:12.043Z,27.19
2024-04-14T11:05:13.686Z,26.99
2024-04-14T11:08:15.266Z,26.61
2024-04-14T11:11:16.936Z,26.35
2024-04-14T11:14:18.787Z,26.19
2024-04-14T11:17:20.185Z,26.04
2024-04-14T11:20:21.755Z,25.86
2024-04-14T11:23:23.406Z,25.77
2024-04-14T11:26:24.791Z,25.79
2024-04-14T11:29:27.442Z,25.81
2024-04-14T11:32:29.032Z,25.70
2024-04-14T11:35:30.450Z,25.67
2024-04-14T11:38:31.832Z,25.72
2024-04-14T11:41:33.291Z,25.59
2024-04-14T11:44:34.786Z,25.49
2024-04-14T11:47:36.282Z,25.57
2024-04-14T11:50:37.734Z,25.64
2024-04-14T11:53:39.196Z,25.64
2024-04-14T11:56:40.611Z,25.58
2024-04-14T11:59:42.008Z,25.59
2024-04-14T12:02:43.483Z,25.70
2024-04-14T12:05:44.987Z,25.69
2024-04-14T12:08:46.371Z,25.69
2024-04-14T12:11:47.798Z,25.58
2024-04-14T12:14:49.263Z,25.39
2024-04-14T12:17:50.734Z,25.16
2024-04-14T12:20:52.300Z,24.94
2024-04-14T12:23:53.710Z,24.73
2024-04-14T12:26:56.337Z,24.75
2024-04-14T12:29:57.898Z,24.80
2024-04-14T12:32:59.450Z,24.55
2024-04-14T12:36:00.936Z,24.42
2024-04-14T12:39:02.369Z,24.68
2024-04-14T12:42:04.761Z,24.87
2024-04-14T12:45:07.055Z,24.74
2024-04-14T12:48:11.356Z,24.73
2024-04-14T12:51:13.032Z,24.72
2024-04-14T12:54:14.392Z,24.69
2024-04-14T12:57:15.754Z,24.65
2024-04-14T13:00:17.250Z,24.48
2024-04-14T13:03:18.657Z,24.31
2024-04-14T13:06:20.033Z,24.27
2024-04-14T13:09:21.395Z,24.15
2024-04-14T13:12:22.816Z,24.00
2024-04-14T13:15:24.255Z,23.91
2024-04-14T13:18:25.723Z,23.92
2024-04-14T13:21:27.232Z,23.91
2024-04-14T13:24:28.779Z,23.86
2024-04-14T13:27:30.112Z,23.82
2024-04-14T13:30:32.601Z,23.63
2024-04-14T13:33:34.151Z,23.39
2024-04-14T13:36:35.758Z,23.27
2024-04-14T13:39:37.273Z,23.22
2024-04-14T13:42:38.720Z,23.22
2024-04-14T13:45:40.173Z,23.50
2024-04-14T13:48:41.602Z,23.64
2024-04-14T13:51:43.098Z,23.57
2024-04-14T13:54:44.574Z,23.39
2024-04-14T13:57:45.986Z,23.24
2024-04-14T14:00:52.349Z,23.14
2024-04-14T14:03:54.054Z,23.01
2024-04-14T14:06:55.571Z,22.79
2024-04-14T14:09:57.026Z,22.58
2024-04-14T14:12:58.573Z,22.39
2024-04-14T14:16:00.354Z,22.21
2024-04-14T14:19:02.047Z,22.10
2024-04-14T14:22:03.536Z,22.00
2024-04-14T14:25:05.402Z,21.94
2024-04-14T14:28:07.053Z,21.93
2024-04-14T14:31:08.958Z,21.94
2024-04-14T14:34:10.466Z,21.95
2024-04-14T14:37:11.937Z,21.97
2024-04-14T14:40:13.429Z,22.08
2024-04-14T14:43:14.848Z,22.25
2024-04-14T14:46:16.547Z,22.23
2024-04-14T14:49:18.056Z,22.04
2024-04-14T14:52:19.697Z,21.87
2024-04-14T14:55:27.730Z,21.65
2024-04-14T14:58:29.570Z,21.42
2024-04-14T15:01:31.035Z,21.22
2024-04-14T15:04:32.602Z,21.04
2024-04-14T15:07:34.136Z,20.91
2024-04-14T15:10:51.314Z,20.84
2024-04-14T15:13:52.678Z,20.79
2024-04-14T15:16:54.572Z,20.75
2024-04-14T15:19:56.016Z,20.73
2024-04-14T15:22:57.388Z,20.67
2024-04-14T15:25:59.037Z,20.62
2024-04-14T15:29:00.433Z,20.61
2024-04-14T15:32:01.896Z,20.64
2024-04-14T15:35:03.508Z,20.60
2024-04-14T15:38:04.940Z,20.52
2024-04-14T15:41:06.503Z,19.98
2024-04-14T15:44:14.936Z,19.11
2024-04-14T15:47:23.293Z,18.42
2024-04-14T15:50:24.680Z,18.04
2024-04-14T15:53:26.116Z,17.86
2024-04-14T15:56:27.578Z,17.80
2024-04-14T15:59:28.975Z,17.77
2024-04-14T16:02:33.815Z,17.83
2024-04-14T16:05:42.957Z,17.90
2024-04-14T16:08:44.828Z,18.01
2024-04-14T16:11:46.220Z,18.01
2024-04-14T16:14:50.988Z,17.97
2024-04-14T16:17:52.849Z,17.93
2024-04-14T16:20:54.364Z,17.90
2024-04-14T16:23:55.937Z,17.86
2024-04-14T16:26:57.830Z,17.73
2024-04-14T16:30:17.787Z,17.64
2024-04-14T16:33:38.154Z,17.56
2024-04-14T16:36:58.550Z,17.51
2024-04-14T16:40:00.074Z,17.47
2024-04-14T16:43:01.638Z,17.47
2024-04-14T16:46:03.495Z,17.48
2024-04-14T16:49:05.249Z,17.40
2024-04-14T16:52:07.042Z,17.25
2024-04-14T16:55:11.823Z,17.13
2024-04-14T16:58:15.824Z,17.03
2024-04-14T17:01:17.367Z,17.02
2024-04-14T17:04:19.039Z,16.98
2024-04-14T17:07:20.730Z,16.84
2024-04-14T17:10:22.214Z,16.73
2024-04-14T17:13:23.828Z,16.64
2024-04-14T17:16:25.253Z,16.58
2024-04-14T17:19:26.817Z,16.56
2024-04-14T17:22:28.798Z,16.56
2024-04-14T17:25:30.394Z,16.54
2024-04-14T17:28:31.908Z,16.51
2024-04-14T17:31:33.374Z,16.46
2024-04-14T17:34:34.821Z,16.43
2024-04-14T17:41:40.377Z,16.36
2024-04-14T17:44:41.763Z,16.37
2024-04-14T17:47:43.289Z,16.43
2024-04-14T17:50:52.146Z,16.49
2024-04-14T17:53:53.690Z,16.55
2024-04-14T17:56:55.123Z,16.59
2024-04-14T17:59:56.523Z,16.60
2024-04-14T18:02:57.859Z,16.59
2024-04-14T18:05:59.518Z,16.58
2024-04-14T18:09:00.891Z,16.58
2024-04-14T18:12:02.311Z,16.54
2024-04-14T18:15:04.056Z,16.48
2024-04-14T18:18:05.789Z,16.40
2024-04-14T18:21:07.351Z,16.37
2024-04-14T18:24:08.751Z,16.35
2024-04-14T18:27:10.258Z,16.31
2024-04-14T18:30:11.710Z,16.24
2024-04-14T18:33:15.775Z,16.16
2024-04-14T18:36:19.099Z,16.09
2024-04-14T18:39:21.029Z,16.00
2024-04-14T18:42:22.454Z,15.91
2024-04-14T18:45:23.895Z,15.84
2024-04-14T18:48:32.939Z,15.79
2024-04-14T18:51:34.475Z,15.74
2024-04-14T18:54:36.002Z,15.68
2024-04-14T18:57:37.570Z,15.62
2024-04-14T19:35:23.511Z,13.48
2024-04-14T19:38:43.777Z,13.41
2024-04-14T19:42:04.199Z,13.40
2024-04-14T19:45:24.228Z,13.46
2024-04-14T19:48:26.191Z,13.54
2024-04-14T19:51:27.627Z,13.59
2024-04-14T19:54:29.046Z,13.63
2024-04-14T19:57:30.441Z,13.65
2024-04-14T20:00:31.897Z,13.66
2024-04-14T20:03:33.339Z,13.68
2024-04-14T20:06:34.746Z,13.70
2024-04-14T20:09:36.275Z,13.70
2024-04-14T20:12:37.792Z,13.74
2024-04-14T20:15:39.297Z,13.80
2024-04-14T20:18:40.805Z,13.87
2024-04-14T20:21:42.283Z,13.92
2024-04-14T20:24:43.694Z,13.94
2024-04-14T20:27:45.115Z,14.00
2024-04-14T20:30:46.524Z,14.02
2024-04-14T20:33:47.871Z,14.03
2024-04-14T20:36:49.350Z,14.04
2024-04-14T20:39:50.744Z,14.03
